sensor_id;sensor_type;location;lat;lon;timestamp;temperature;humidity
4324;DHT22;2175;51.018;6.994;2022-08-21T00:02:02;16.70;99.90
4324;DHT22;2175;51.018;6.994;2022-08-21T00:04:29;16.60;99.90
4324;DHT22;2175;51.018;6.994;2022-08-21T00:06:54;16.60;99.90
4324;DHT22;2175;51.018;6.994;2022-08-21T00:09:20;16.50;99.90
4324;DHT22;2175;51.018;6.994;2022-08-21T00:11:47;16.50;99.90
4324;DHT22;2175;51.018;6.994;2022-08-21T00:14:13;16.50;99.90
4324;DHT22;2175;51.018;6.994;2022-08-21T00:16:40;16.40;99.90
4324;DHT22;2175;51.018;6.994;2022-08-21T00:19:07;16.40;99.90
4324;DHT22;2175;51.018;6.994;2022-08-21T00:21:34;16.40;99.90
4324;DHT22;2175;51.018;6.994;2022-08-21T00:24:00;16.40;99.90
4324;DHT22;2175;51.018;6.994;2022-08-21T00:26:26;16.30;99.90
4324;DHT22;2175;51.018;6.994;2022-08-21T00:28:52;16.30;99.90
4324;DHT22;2175;51.018;6.994;2022-08-21T00:31:18;16.20;99.90
4324;DHT22;2175;51.018;6.994;2022-08-21T00:33:44;16.20;99.90
4324;DHT22;2175;51.018;6.994;2022-08-21T00:36:11;16.30;99.90
4324;DHT22;2175;51.018;6.994;2022-08-21T00:38:36;16.20;99.90
4324;DHT22;2175;51.018;6.994;2022-08-21T00:41:05;16.20;99.90
4324;DHT22;2175;51.018;6.994;2022-08-21T00:43:33;16.20;99.90
4324;DHT22;2175;51.018;6.994;2022-08-21T00:46:00;16.20;99.90
4324;DHT22;2175;51.018;6.994;2022-08-21T00:48:26;16.20;99.90
4324;DHT22;2175;51.018;6.994;2022-08-21T00:50:57;16.10;99.90
4324;DHT22;2175;51.018;6.994;2022-08-21T00:53:23;16.10;99.90
4324;DHT22;2175;51.018;6.994;2022-08-21T00:55:50;16.00;99.90
4324;DHT22;2175;51.018;6.994;2022-08-21T00:58:17;16.00;99.90
4324;DHT22;2175;51.018;6.994;2022-08-21T01:00:45;15.90;99.90
4324;DHT22;2175;51.018;6.994;2022-08-21T01:03:15;15.80;99.90
4324;DHT22;2175;51.018;6.994;2022-08-21T01:05:42;15.90;99.90
4324;DHT22;2175;51.018;6.994;2022-08-21T01:08:09;15.90;99.90
4324;DHT22;2175;51.018;6.994;2022-08-21T01:10:36;15.80;99.90
4324;DHT22;2175;51.018;6.994;2022-08-21T01:13:04;15.80;99.90
4324;DHT22;2175;51.018;6.994;2022-08-21T01:15:35;15.90;99.90
4324;DHT22;2175;51.018;6.994;2022-08-21T01:18:03;15.80;99.90
4324;DHT22;2175;51.018;6.994;2022-08-21T01:20:29;15.80;99.90
4324;DHT22;2175;51.018;6.994;2022-08-21T01:22:55;15.80;99.90
4324;DHT22;2175;51.018;6.994;2022-08-21T01:25:21;15.80;99.90
4324;DHT22;2175;51.018;6.994;2022-08-21T01:27:46;15.80;99.90
4324;DHT22;2175;51.018;6.994;2022-08-21T01:30:16;15.80;99.90
4324;DHT22;2175;51.018;6.994;2022-08-21T01:32:43;15.70;99.90
4324;DHT22;2175;51.018;6.994;2022-08-21T01:35:10;15.80;99.90
4324;DHT22;2175;51.018;6.994;2022-08-21T01:37:37;15.70;99.90
4324;DHT22;2175;51.018;6.994;2022-08-21T01:40:04;15.70;99.90
4324;DHT22;2175;51.018;6.994;2022-08-21T01:42:30;15.70;99.90
4324;DHT22;2175;51.018;6.994;2022-08-21T01:44:56;15.70;99.90
4324;DHT22;2175;51.018;6.994;2022-08-21T01:47:22;15.80;99.90
4324;DHT22;2175;51.018;6.994;2022-08-21T01:49:48;15.80;99.90
4324;DHT22;2175;51.018;6.994;2022-08-21T01:52:14;15.70;99.90
4324;DHT22;2175;51.018;6.994;2022-08-21T01:54:41;15.60;99.90
4324;DHT22;2175;51.018;6.994;2022-08-21T01:57:07;15.60;99.90
4324;DHT22;2175;51.018;6.994;2022-08-21T01:59:33;15.60;99.90
4324;DHT22;2175;51.018;6.994;2022-08-21T02:01:58;15.60;99.90
4324;DHT22;2175;51.018;6.994;2022-08-21T02:04:24;15.60;99.90
4324;DHT22;2175;51.018;6.994;2022-08-21T02:06:50;15.60;99.90
4324;DHT22;2175;51.018;6.994;2022-08-21T02:09:16;15.60;99.90
4324;DHT22;2175;51.018;6.994;2022-08-21T02:11:42;15.50;99.90
4324;DHT22;2175;51.018;6.994;2022-08-21T02:14:14;15.50;99.90
4324;DHT22;2175;51.018;6.994;2022-08-21T02:16:41;15.40;99.90
4324;DHT22;2175;51.018;6.994;2022-08-21T02:19:07;15.30;99.90
4324;DHT22;2175;51.018;6.994;2022-08-21T02:21:33;15.30;99.90
4324;DHT22;2175;51.018;6.994;2022-08-21T02:23:59;15.30;99.90
4324;DHT22;2175;51.018;6.994;2022-08-21T02:26:25;15.30;99.90
4324;DHT22;2175;51.018;6.994;2022-08-21T02:28:51;15.30;99.90
4324;DHT22;2175;51.018;6.994;2022-08-21T02:31:17;15.20;99.90
4324;DHT22;2175;51.018;6.994;2022-08-21T02:33:43;15.20;99.90
4324;DHT22;2175;51.018;6.994;2022-08-21T02:36:10;15.20;99.90
4324;DHT22;2175;51.018;6.994;2022-08-21T02:38:37;15.20;99.90
4324;DHT22;2175;51.018;6.994;2022-08-21T02:41:06;15.00;99.90
4324;DHT22;2175;51.018;6.994;2022-08-21T02:43:32;15.00;99.90
4324;DHT22;2175;51.018;6.994;2022-08-21T02:45:58;15.00;99.90
4324;DHT22;2175;51.018;6.994;2022-08-21T02:48:27;14.90;99.90
4324;DHT22;2175;51.018;6.994;2022-08-21T02:51:15;15.00;99.90
4324;DHT22;2175;51.018;6.994;2022-08-21T02:53:43;15.10;99.90
4324;DHT22;2175;51.018;6.994;2022-08-21T02:56:11;15.10;99.90
4324;DHT22;2175;51.018;6.994;2022-08-21T02:58:41;15.00;99.90
4324;DHT22;2175;51.018;6.994;2022-08-21T03:01:08;15.00;99.90
4324;DHT22;2175;51.018;6.994;2022-08-21T03:03:36;14.90;99.90
4324;DHT22;2175;51.018;6.994;2022-08-21T03:06:03;15.00;99.90
4324;DHT22;2175;51.018;6.994;2022-08-21T03:08:29;14.90;99.90
4324;DHT22;2175;51.018;6.994;2022-08-21T03:10:54;14.80;99.90
4324;DHT22;2175;51.018;6.994;2022-08-21T03:13:21;14.90;99.90
4324;DHT22;2175;51.018;6.994;2022-08-21T03:15:47;14.90;99.90
4324;DHT22;2175;51.018;6.994;2022-08-21T03:18:14;15.00;99.90
4324;DHT22;2175;51.018;6.994;2022-08-21T03:20:41;15.00;99.90
4324;DHT22;2175;51.018;6.994;2022-08-21T03:23:07;15.00;99.90
4324;DHT22;2175;51.018;6.994;2022-08-21T03:25:34;14.90;99.90
4324;DHT22;2175;51.018;6.994;2022-08-21T03:28:02;14.90;99.90
4324;DHT22;2175;51.018;6.994;2022-08-21T03:30:28;15.00;99.90
4324;DHT22;2175;51.018;6.994;2022-08-21T03:32:59;14.90;99.90
4324;DHT22;2175;51.018;6.994;2022-08-21T03:35:26;14.90;99.90
4324;DHT22;2175;51.018;6.994;2022-08-21T03:37:53;14.80;99.90
4324;DHT22;2175;51.018;6.994;2022-08-21T03:40:21;14.90;99.90
4324;DHT22;2175;51.018;6.994;2022-08-21T03:42:47;14.80;99.90
4324;DHT22;2175;51.018;6.994;2022-08-21T03:45:15;14.80;99.90
4324;DHT22;2175;51.018;6.994;2022-08-21T03:47:55;14.80;99.90
4324;DHT22;2175;51.018;6.994;2022-08-21T03:50:23;14.80;99.90
4324;DHT22;2175;51.018;6.994;2022-08-21T03:52:49;14.80;99.90
4324;DHT22;2175;51.018;6.994;2022-08-21T03:55:15;14.90;99.90
4324;DHT22;2175;51.018;6.994;2022-08-21T03:57:40;14.80;99.90
4324;DHT22;2175;51.018;6.994;2022-08-21T04:00:07;14.60;99.90
4324;DHT22;2175;51.018;6.994;2022-08-21T04:02:35;14.60;99.90
4324;DHT22;2175;51.018;6.994;2022-08-21T04:05:01;14.70;99.90
4324;DHT22;2175;51.018;6.994;2022-08-21T04:07:26;14.70;99.90
4324;DHT22;2175;51.018;6.994;2022-08-21T04:09:52;14.60;99.90
4324;DHT22;2175;51.018;6.994;2022-08-21T04:12:18;14.60;99.90
4324;DHT22;2175;51.018;6.994;2022-08-21T04:14:44;14.60;99.90
4324;DHT22;2175;51.018;6.994;2022-08-21T04:17:10;14.60;99.90
4324;DHT22;2175;51.018;6.994;2022-08-21T04:19:35;14.50;99.90
4324;DHT22;2175;51.018;6.994;2022-08-21T04:22:01;14.50;99.90
4324;DHT22;2175;51.018;6.994;2022-08-21T04:24:26;14.50;99.90
4324;DHT22;2175;51.018;6.994;2022-08-21T04:26:52;14.50;99.90
4324;DHT22;2175;51.018;6.994;2022-08-21T04:29:17;14.40;99.90
4324;DHT22;2175;51.018;6.994;2022-08-21T04:31:44;14.50;99.90
4324;DHT22;2175;51.018;6.994;2022-08-21T04:34:10;14.40;99.90
4324;DHT22;2175;51.018;6.994;2022-08-21T04:36:35;14.40;99.90
4324;DHT22;2175;51.018;6.994;2022-08-21T04:39:01;14.50;99.90
4324;DHT22;2175;51.018;6.994;2022-08-21T04:41:27;14.50;99.90
4324;DHT22;2175;51.018;6.994;2022-08-21T04:43:53;14.50;99.90
4324;DHT22;2175;51.018;6.994;2022-08-21T04:46:21;14.50;99.90
4324;DHT22;2175;51.018;6.994;2022-08-21T04:48:46;14.50;99.90
4324;DHT22;2175;51.018;6.994;2022-08-21T04:51:16;14.60;99.90
4324;DHT22;2175;51.018;6.994;2022-08-21T04:53:49;14.60;99.90
4324;DHT22;2175;51.018;6.994;2022-08-21T04:56:25;14.70;99.90
4324;DHT22;2175;51.018;6.994;2022-08-21T04:58:53;14.50;99.90
4324;DHT22;2175;51.018;6.994;2022-08-21T05:01:23;14.60;99.90
4324;DHT22;2175;51.018;6.994;2022-08-21T05:03:52;14.60;99.90
4324;DHT22;2175;51.018;6.994;2022-08-21T05:06:19;14.70;99.90
4324;DHT22;2175;51.018;6.994;2022-08-21T05:08:48;14.70;99.90
4324;DHT22;2175;51.018;6.994;2022-08-21T05:11:14;14.80;99.90
4324;DHT22;2175;51.018;6.994;2022-08-21T05:13:40;14.90;99.90
4324;DHT22;2175;51.018;6.994;2022-08-21T05:16:08;14.80;99.90
4324;DHT22;2175;51.018;6.994;2022-08-21T05:18:34;14.90;99.90
4324;DHT22;2175;51.018;6.994;2022-08-21T05:21:00;14.90;99.90
4324;DHT22;2175;51.018;6.994;2022-08-21T05:23:26;14.90;99.90
4324;DHT22;2175;51.018;6.994;2022-08-21T05:25:52;15.00;99.90
4324;DHT22;2175;51.018;6.994;2022-08-21T05:28:18;15.00;99.90
4324;DHT22;2175;51.018;6.994;2022-08-21T05:30:45;15.10;99.90
4324;DHT22;2175;51.018;6.994;2022-08-21T05:33:10;15.00;99.90
4324;DHT22;2175;51.018;6.994;2022-08-21T05:35:37;15.00;99.90
4324;DHT22;2175;51.018;6.994;2022-08-21T05:38:04;15.10;99.90
4324;DHT22;2175;51.018;6.994;2022-08-21T05:40:30;15.10;99.90
4324;DHT22;2175;51.018;6.994;2022-08-21T05:42:56;15.10;99.90
4324;DHT22;2175;51.018;6.994;2022-08-21T05:45:23;15.20;99.90
4324;DHT22;2175;51.018;6.994;2022-08-21T05:47:49;15.20;99.90
4324;DHT22;2175;51.018;6.994;2022-08-21T05:50:15;15.20;99.90
4324;DHT22;2175;51.018;6.994;2022-08-21T05:52:40;15.30;99.90
4324;DHT22;2175;51.018;6.994;2022-08-21T05:55:06;15.30;99.90
4324;DHT22;2175;51.018;6.994;2022-08-21T05:57:32;15.30;99.90
4324;DHT22;2175;51.018;6.994;2022-08-21T05:59:57;15.50;99.90
4324;DHT22;2175;51.018;6.994;2022-08-21T06:02:23;15.50;99.90
4324;DHT22;2175;51.018;6.994;2022-08-21T06:04:48;15.60;99.90
4324;DHT22;2175;51.018;6.994;2022-08-21T06:07:14;15.60;99.90
4324;DHT22;2175;51.018;6.994;2022-08-21T06:09:40;15.60;99.90
4324;DHT22;2175;51.018;6.994;2022-08-21T06:12:07;15.60;99.90
4324;DHT22;2175;51.018;6.994;2022-08-21T06:14:34;15.70;99.90
4324;DHT22;2175;51.018;6.994;2022-08-21T06:17:04;15.80;99.90
4324;DHT22;2175;51.018;6.994;2022-08-21T06:19:30;15.90;99.90
4324;DHT22;2175;51.018;6.994;2022-08-21T06:21:56;16.00;99.90
4324;DHT22;2175;51.018;6.994;2022-08-21T06:24:22;15.90;99.90
4324;DHT22;2175;51.018;6.994;2022-08-21T06:26:47;15.90;99.90
4324;DHT22;2175;51.018;6.994;2022-08-21T06:29:13;15.80;99.90
4324;DHT22;2175;51.018;6.994;2022-08-21T06:31:43;15.90;99.90
4324;DHT22;2175;51.018;6.994;2022-08-21T06:34:09;16.00;99.90
4324;DHT22;2175;51.018;6.994;2022-08-21T06:36:35;16.20;99.90
4324;DHT22;2175;51.018;6.994;2022-08-21T06:39:01;16.30;99.90
4324;DHT22;2175;51.018;6.994;2022-08-21T06:41:26;16.40;99.90
4324;DHT22;2175;51.018;6.994;2022-08-21T06:43:53;16.50;99.90
4324;DHT22;2175;51.018;6.994;2022-08-21T06:46:19;16.40;99.90
4324;DHT22;2175;51.018;6.994;2022-08-21T06:48:44;16.50;99.90
4324;DHT22;2175;51.018;6.994;2022-08-21T06:51:10;16.60;99.90
4324;DHT22;2175;51.018;6.994;2022-08-21T06:53:36;16.70;99.90
4324;DHT22;2175;51.018;6.994;2022-08-21T06:56:02;16.80;99.90
4324;DHT22;2175;51.018;6.994;2022-08-21T06:58:28;16.80;99.90
4324;DHT22;2175;51.018;6.994;2022-08-21T07:00:54;16.80;99.90
4324;DHT22;2175;51.018;6.994;2022-08-21T07:03:30;17.00;99.90
4324;DHT22;2175;51.018;6.994;2022-08-21T07:05:56;17.00;99.90
4324;DHT22;2175;51.018;6.994;2022-08-21T07:08:26;17.10;99.90
4324;DHT22;2175;51.018;6.994;2022-08-21T07:10:54;17.10;99.90
4324;DHT22;2175;51.018;6.994;2022-08-21T07:13:21;17.20;99.90
4324;DHT22;2175;51.018;6.994;2022-08-21T07:15:47;17.30;99.90
4324;DHT22;2175;51.018;6.994;2022-08-21T07:18:13;17.40;99.90
4324;DHT22;2175;51.018;6.994;2022-08-21T07:20:39;17.50;99.90
4324;DHT22;2175;51.018;6.994;2022-08-21T07:23:09;17.60;99.90
4324;DHT22;2175;51.018;6.994;2022-08-21T07:25:36;17.90;99.90
4324;DHT22;2175;51.018;6.994;2022-08-21T07:28:02;18.00;99.90
4324;DHT22;2175;51.018;6.994;2022-08-21T07:30:28;18.20;99.90
4324;DHT22;2175;51.018;6.994;2022-08-21T07:32:54;18.50;94.70
4324;DHT22;2175;51.018;6.994;2022-08-21T07:35:20;18.90;61.00
4324;DHT22;2175;51.018;6.994;2022-08-21T07:37:46;19.30;67.20
4324;DHT22;2175;51.018;6.994;2022-08-21T07:40:15;19.90;44.20
4324;DHT22;2175;51.018;6.994;2022-08-21T07:42:44;20.40;14.30
4324;DHT22;2175;51.018;6.994;2022-08-21T07:45:12;21.10;1.00
4324;DHT22;2175;51.018;6.994;2022-08-21T07:47:38;21.50;1.00
4324;DHT22;2175;51.018;6.994;2022-08-21T07:50:05;22.00;1.00
4324;DHT22;2175;51.018;6.994;2022-08-21T07:52:31;22.30;1.00
4324;DHT22;2175;51.018;6.994;2022-08-21T07:54:58;22.70;99.90
4324;DHT22;2175;51.018;6.994;2022-08-21T07:57:23;23.00;1.00
4324;DHT22;2175;51.018;6.994;2022-08-21T07:59:49;23.20;99.90
4324;DHT22;2175;51.018;6.994;2022-08-21T08:02:28;23.50;99.90
4324;DHT22;2175;51.018;6.994;2022-08-21T08:05:03;23.60;99.90
4324;DHT22;2175;51.018;6.994;2022-08-21T08:07:29;23.90;99.90
4324;DHT22;2175;51.018;6.994;2022-08-21T08:09:55;24.20;99.90
4324;DHT22;2175;51.018;6.994;2022-08-21T08:12:21;24.00;99.90
4324;DHT22;2175;51.018;6.994;2022-08-21T08:14:46;24.50;99.90
4324;DHT22;2175;51.018;6.994;2022-08-21T08:17:12;24.50;99.90
4324;DHT22;2175;51.018;6.994;2022-08-21T08:19:39;24.60;99.90
4324;DHT22;2175;51.018;6.994;2022-08-21T08:22:15;24.40;99.90
4324;DHT22;2175;51.018;6.994;2022-08-21T08:24:41;24.80;99.90
4324;DHT22;2175;51.018;6.994;2022-08-21T08:27:06;24.60;99.90
4324;DHT22;2175;51.018;6.994;2022-08-21T08:29:36;24.60;99.90
4324;DHT22;2175;51.018;6.994;2022-08-21T08:32:07;24.80;99.90
4324;DHT22;2175;51.018;6.994;2022-08-21T08:34:36;24.50;99.90
4324;DHT22;2175;51.018;6.994;2022-08-21T08:37:07;24.60;99.90
4324;DHT22;2175;51.018;6.994;2022-08-21T08:39:33;24.70;99.90
4324;DHT22;2175;51.018;6.994;2022-08-21T08:42:14;24.70;99.90
4324;DHT22;2175;51.018;6.994;2022-08-21T08:44:44;24.80;99.90
4324;DHT22;2175;51.018;6.994;2022-08-21T08:47:12;25.00;99.90
4324;DHT22;2175;51.018;6.994;2022-08-21T08:50:06;25.30;99.90
4324;DHT22;2175;51.018;6.994;2022-08-21T08:52:45;25.10;99.90
4324;DHT22;2175;51.018;6.994;2022-08-21T08:57:47;25.40;99.90
4324;DHT22;2175;51.018;6.994;2022-08-21T09:00:20;25.60;99.90
4324;DHT22;2175;51.018;6.994;2022-08-21T09:09:31;25.90;99.90
4324;DHT22;2175;51.018;6.994;2022-08-21T09:15:09;26.30;99.90
4324;DHT22;2175;51.018;6.994;2022-08-21T09:23:25;26.10;99.90
4324;DHT22;2175;51.018;6.994;2022-08-21T09:28:39;26.50;99.90
4324;DHT22;2175;51.018;6.994;2022-08-21T09:31:12;26.80;99.90
4324;DHT22;2175;51.018;6.994;2022-08-21T09:33:41;27.00;99.90
4324;DHT22;2175;51.018;6.994;2022-08-21T09:36:07;26.90;99.90
4324;DHT22;2175;51.018;6.994;2022-08-21T09:38:36;26.60;99.90
4324;DHT22;2175;51.018;6.994;2022-08-21T09:41:08;26.30;99.90
4324;DHT22;2175;51.018;6.994;2022-08-21T09:43:35;26.80;99.90
4324;DHT22;2175;51.018;6.994;2022-08-21T09:51:12;27.10;98.90
4324;DHT22;2175;51.018;6.994;2022-08-21T09:53:42;27.60;97.90
4324;DHT22;2175;51.018;6.994;2022-08-21T09:56:31;27.80;99.90
4324;DHT22;2175;51.018;6.994;2022-08-21T09:59:25;27.90;98.60
4324;DHT22;2175;51.018;6.994;2022-08-21T10:01:53;27.70;98.90
4324;DHT22;2175;51.018;6.994;2022-08-21T10:04:29;27.70;98.30
4324;DHT22;2175;51.018;6.994;2022-08-21T10:07:05;27.70;98.70
4324;DHT22;2175;51.018;6.994;2022-08-21T10:09:30;27.80;98.30
4324;DHT22;2175;51.018;6.994;2022-08-21T10:12:17;27.70;97.40
4324;DHT22;2175;51.018;6.994;2022-08-21T10:20:09;27.00;98.40
4324;DHT22;2175;51.018;6.994;2022-08-21T10:23:01;26.90;98.10
4324;DHT22;2175;51.018;6.994;2022-08-21T10:28:34;26.50;96.70
4324;DHT22;2175;51.018;6.994;2022-08-21T10:31:19;26.30;97.80
4324;DHT22;2175;51.018;6.994;2022-08-21T10:34:07;26.50;97.70
4324;DHT22;2175;51.018;6.994;2022-08-21T10:37:06;26.40;97.10
4324;DHT22;2175;51.018;6.994;2022-08-21T10:42:49;26.90;97.30
4324;DHT22;2175;51.018;6.994;2022-08-21T10:48:07;26.50;96.90
4324;DHT22;2175;51.018;6.994;2022-08-21T10:50:48;26.60;96.10
4324;DHT22;2175;51.018;6.994;2022-08-21T10:56:29;26.60;96.80
4324;DHT22;2175;51.018;6.994;2022-08-21T10:59:22;26.50;96.60
4324;DHT22;2175;51.018;6.994;2022-08-21T11:01:54;26.40;96.90
4324;DHT22;2175;51.018;6.994;2022-08-21T11:04:34;26.60;97.30
4324;DHT22;2175;51.018;6.994;2022-08-21T11:07:15;26.60;97.20
4324;DHT22;2175;51.018;6.994;2022-08-21T11:09:46;26.60;96.90
4324;DHT22;2175;51.018;6.994;2022-08-21T11:17:34;26.30;96.40
4324;DHT22;2175;51.018;6.994;2022-08-21T11:20:13;26.10;96.20
4324;DHT22;2175;51.018;6.994;2022-08-21T11:22:56;26.00;95.90
4324;DHT22;2175;51.018;6.994;2022-08-21T11:25:29;26.10;96.60
4324;DHT22;2175;51.018;6.994;2022-08-21T11:28:50;26.20;96.50
4324;DHT22;2175;51.018;6.994;2022-08-21T11:31:15;26.10;95.70
4324;DHT22;2175;51.018;6.994;2022-08-21T11:34:26;26.20;96.50
4324;DHT22;2175;51.018;6.994;2022-08-21T11:37:03;26.40;96.90
4324;DHT22;2175;51.018;6.994;2022-08-21T11:39:56;26.30;96.10
4324;DHT22;2175;51.018;6.994;2022-08-21T11:42:49;26.30;96.10
4324;DHT22;2175;51.018;6.994;2022-08-21T11:45:22;26.30;95.20
4324;DHT22;2175;51.018;6.994;2022-08-21T11:48:11;26.10;96.20
4324;DHT22;2175;51.018;6.994;2022-08-21T11:50:41;26.20;97.10
4324;DHT22;2175;51.018;6.994;2022-08-21T11:53:09;26.40;96.20
4324;DHT22;2175;51.018;6.994;2022-08-21T11:58:23;26.10;95.30
4324;DHT22;2175;51.018;6.994;2022-08-21T12:01:33;26.10;94.90
4324;DHT22;2175;51.018;6.994;2022-08-21T12:04:04;26.10;94.50
4324;DHT22;2175;51.018;6.994;2022-08-21T12:06:39;26.10;95.70
4324;DHT22;2175;51.018;6.994;2022-08-21T12:09:51;25.90;94.80
4324;DHT22;2175;51.018;6.994;2022-08-21T12:12:26;25.90;96.70
4324;DHT22;2175;51.018;6.994;2022-08-21T12:15:16;25.80;95.50
4324;DHT22;2175;51.018;6.994;2022-08-21T12:20:40;25.80;95.10
4324;DHT22;2175;51.018;6.994;2022-08-21T12:25:59;26.00;96.00
4324;DHT22;2175;51.018;6.994;2022-08-21T12:28:27;26.00;95.70
4324;DHT22;2175;51.018;6.994;2022-08-21T12:30:53;26.00;96.60
4324;DHT22;2175;51.018;6.994;2022-08-21T12:33:37;25.90;96.20
4324;DHT22;2175;51.018;6.994;2022-08-21T12:36:19;25.60;95.90
4324;DHT22;2175;51.018;6.994;2022-08-21T12:39:11;25.50;97.30
4324;DHT22;2175;51.018;6.994;2022-08-21T12:41:45;25.60;97.00
4324;DHT22;2175;51.018;6.994;2022-08-21T12:44:21;25.50;96.80
4324;DHT22;2175;51.018;6.994;2022-08-21T12:46:57;25.40;97.10
4324;DHT22;2175;51.018;6.994;2022-08-21T12:49:34;25.40;97.20
4324;DHT22;2175;51.018;6.994;2022-08-21T12:52:06;25.50;97.50
4324;DHT22;2175;51.018;6.994;2022-08-21T12:54:42;25.60;96.80
4324;DHT22;2175;51.018;6.994;2022-08-21T12:57:08;25.70;97.00
4324;DHT22;2175;51.018;6.994;2022-08-21T12:59:41;25.70;97.10
4324;DHT22;2175;51.018;6.994;2022-08-21T13:02:19;25.90;98.20
4324;DHT22;2175;51.018;6.994;2022-08-21T13:04:46;25.90;96.30
4324;DHT22;2175;51.018;6.994;2022-08-21T13:07:16;25.80;95.90
4324;DHT22;2175;51.018;6.994;2022-08-21T13:09:49;25.90;96.50
4324;DHT22;2175;51.018;6.994;2022-08-21T13:12:17;25.90;96.40
4324;DHT22;2175;51.018;6.994;2022-08-21T13:14:45;25.80;97.10
4324;DHT22;2175;51.018;6.994;2022-08-21T13:17:14;25.80;97.00
4324;DHT22;2175;51.018;6.994;2022-08-21T13:19:40;25.80;95.80
4324;DHT22;2175;51.018;6.994;2022-08-21T13:22:13;25.90;97.30
4324;DHT22;2175;51.018;6.994;2022-08-21T13:24:39;26.10;97.60
4324;DHT22;2175;51.018;6.994;2022-08-21T13:27:24;26.10;95.60
4324;DHT22;2175;51.018;6.994;2022-08-21T13:30:04;26.10;95.40
4324;DHT22;2175;51.018;6.994;2022-08-21T13:32:32;26.20;97.10
4324;DHT22;2175;51.018;6.994;2022-08-21T13:35:07;26.10;95.40
4324;DHT22;2175;51.018;6.994;2022-08-21T13:37:33;26.00;95.50
4324;DHT22;2175;51.018;6.994;2022-08-21T13:39:58;26.10;95.70
4324;DHT22;2175;51.018;6.994;2022-08-21T13:42:24;26.10;94.80
4324;DHT22;2175;51.018;6.994;2022-08-21T13:44:52;26.00;95.00
4324;DHT22;2175;51.018;6.994;2022-08-21T13:47:19;26.10;95.20
4324;DHT22;2175;51.018;6.994;2022-08-21T13:49:47;26.20;95.30
4324;DHT22;2175;51.018;6.994;2022-08-21T13:52:16;26.20;96.00
4324;DHT22;2175;51.018;6.994;2022-08-21T13:54:43;26.10;95.60
4324;DHT22;2175;51.018;6.994;2022-08-21T13:57:25;26.00;95.30
4324;DHT22;2175;51.018;6.994;2022-08-21T13:59:51;26.10;96.60
4324;DHT22;2175;51.018;6.994;2022-08-21T14:02:20;26.20;97.60
4324;DHT22;2175;51.018;6.994;2022-08-21T14:07:29;26.30;95.30
4324;DHT22;2175;51.018;6.994;2022-08-21T14:10:08;26.40;95.30
4324;DHT22;2175;51.018;6.994;2022-08-21T14:13:06;26.40;95.80
4324;DHT22;2175;51.018;6.994;2022-08-21T14:15:34;26.30;94.70
4324;DHT22;2175;51.018;6.994;2022-08-21T14:18:13;26.30;94.00
4324;DHT22;2175;51.018;6.994;2022-08-21T14:20:40;26.20;94.30
4324;DHT22;2175;51.018;6.994;2022-08-21T14:23:06;26.20;94.20
4324;DHT22;2175;51.018;6.994;2022-08-21T14:25:43;26.20;93.90
4324;DHT22;2175;51.018;6.994;2022-08-21T14:28:20;26.20;93.90
4324;DHT22;2175;51.018;6.994;2022-08-21T14:30:51;26.30;94.40
4324;DHT22;2175;51.018;6.994;2022-08-21T14:33:26;26.30;94.00
4324;DHT22;2175;51.018;6.994;2022-08-21T14:35:53;26.20;92.60
4324;DHT22;2175;51.018;6.994;2022-08-21T14:38:21;25.90;92.60
4324;DHT22;2175;51.018;6.994;2022-08-21T14:40:50;25.90;92.80
4324;DHT22;2175;51.018;6.994;2022-08-21T14:43:17;26.00;93.00
4324;DHT22;2175;51.018;6.994;2022-08-21T14:45:44;25.90;92.70
4324;DHT22;2175;51.018;6.994;2022-08-21T14:48:10;26.10;93.00
4324;DHT22;2175;51.018;6.994;2022-08-21T14:50:37;26.10;93.70
4324;DHT22;2175;51.018;6.994;2022-08-21T14:53:03;26.20;93.90
4324;DHT22;2175;51.018;6.994;2022-08-21T14:55:30;26.10;92.30
4324;DHT22;2175;51.018;6.994;2022-08-21T14:57:56;26.10;92.20
4324;DHT22;2175;51.018;6.994;2022-08-21T15:00:24;26.00;92.40
4324;DHT22;2175;51.018;6.994;2022-08-21T15:02:50;26.00;92.30
4324;DHT22;2175;51.018;6.994;2022-08-21T15:05:17;25.80;92.00
4324;DHT22;2175;51.018;6.994;2022-08-21T15:07:43;25.90;92.10
4324;DHT22;2175;51.018;6.994;2022-08-21T15:10:10;25.80;91.80
4324;DHT22;2175;51.018;6.994;2022-08-21T15:12:36;25.80;92.10
4324;DHT22;2175;51.018;6.994;2022-08-21T15:15:01;25.80;92.60
4324;DHT22;2175;51.018;6.994;2022-08-21T15:17:27;25.80;93.30
4324;DHT22;2175;51.018;6.994;2022-08-21T15:19:53;25.80;93.20
4324;DHT22;2175;51.018;6.994;2022-08-21T15:22:18;25.80;92.80
4324;DHT22;2175;51.018;6.994;2022-08-21T15:24:44;25.80;92.20
4324;DHT22;2175;51.018;6.994;2022-08-21T15:27:10;25.80;92.50
4324;DHT22;2175;51.018;6.994;2022-08-21T15:29:37;25.60;93.70
4324;DHT22;2175;51.018;6.994;2022-08-21T15:32:20;25.60;94.20
4324;DHT22;2175;51.018;6.994;2022-08-21T15:34:48;25.50;94.20
4324;DHT22;2175;51.018;6.994;2022-08-21T15:37:14;25.40;93.10
4324;DHT22;2175;51.018;6.994;2022-08-21T15:39:39;25.30;92.70
4324;DHT22;2175;51.018;6.994;2022-08-21T15:42:05;25.30;93.10
4324;DHT22;2175;51.018;6.994;2022-08-21T15:44:31;25.30;92.70
4324;DHT22;2175;51.018;6.994;2022-08-21T15:46:59;25.30;92.50
4324;DHT22;2175;51.018;6.994;2022-08-21T15:49:24;25.30;93.20
4324;DHT22;2175;51.018;6.994;2022-08-21T15:51:50;25.30;93.20
4324;DHT22;2175;51.018;6.994;2022-08-21T15:54:16;25.20;93.30
4324;DHT22;2175;51.018;6.994;2022-08-21T15:56:45;25.20;93.40
4324;DHT22;2175;51.018;6.994;2022-08-21T15:59:15;25.20;94.30
4324;DHT22;2175;51.018;6.994;2022-08-21T16:01:42;25.20;93.30
4324;DHT22;2175;51.018;6.994;2022-08-21T16:04:09;25.30;94.10
4324;DHT22;2175;51.018;6.994;2022-08-21T16:06:35;25.30;93.20
4324;DHT22;2175;51.018;6.994;2022-08-21T16:09:01;25.30;92.90
4324;DHT22;2175;51.018;6.994;2022-08-21T16:11:27;25.30;93.20
4324;DHT22;2175;51.018;6.994;2022-08-21T16:13:53;25.40;93.90
4324;DHT22;2175;51.018;6.994;2022-08-21T16:16:21;25.40;93.50
4324;DHT22;2175;51.018;6.994;2022-08-21T16:18:49;25.40;95.70
4324;DHT22;2175;51.018;6.994;2022-08-21T16:21:16;25.40;95.20
4324;DHT22;2175;51.018;6.994;2022-08-21T16:23:42;25.50;95.60
4324;DHT22;2175;51.018;6.994;2022-08-21T16:26:10;25.40;95.60
4324;DHT22;2175;51.018;6.994;2022-08-21T16:28:38;25.40;96.20
4324;DHT22;2175;51.018;6.994;2022-08-21T16:31:04;25.40;95.00
4324;DHT22;2175;51.018;6.994;2022-08-21T16:33:39;25.50;94.30
4324;DHT22;2175;51.018;6.994;2022-08-21T16:36:07;25.50;94.30
4324;DHT22;2175;51.018;6.994;2022-08-21T16:38:34;25.50;94.70
4324;DHT22;2175;51.018;6.994;2022-08-21T16:41:06;25.50;95.20
4324;DHT22;2175;51.018;6.994;2022-08-21T16:43:33;25.50;94.30
4324;DHT22;2175;51.018;6.994;2022-08-21T16:46:00;25.60;94.10
4324;DHT22;2175;51.018;6.994;2022-08-21T16:48:26;25.50;94.80
4324;DHT22;2175;51.018;6.994;2022-08-21T16:50:54;25.40;95.60
4324;DHT22;2175;51.018;6.994;2022-08-21T16:53:19;25.40;96.10
4324;DHT22;2175;51.018;6.994;2022-08-21T16:55:46;25.30;95.90
4324;DHT22;2175;51.018;6.994;2022-08-21T16:58:34;25.30;95.80
4324;DHT22;2175;51.018;6.994;2022-08-21T17:01:04;25.20;96.40
4324;DHT22;2175;51.018;6.994;2022-08-21T17:03:35;25.20;97.20
4324;DHT22;2175;51.018;6.994;2022-08-21T17:06:02;25.20;96.40
4324;DHT22;2175;51.018;6.994;2022-08-21T17:08:28;25.20;96.60
4324;DHT22;2175;51.018;6.994;2022-08-21T17:10:54;25.20;95.70
4324;DHT22;2175;51.018;6.994;2022-08-21T17:13:20;25.10;96.20
4324;DHT22;2175;51.018;6.994;2022-08-21T17:15:46;25.10;97.50
4324;DHT22;2175;51.018;6.994;2022-08-21T17:18:16;25.00;96.90